createdAt,value
2023-03-15T00:01:53.081Z,6.10
2023-03-15T00:04:21.369Z,6.20
2023-03-15T00:06:48.655Z,6.20
2023-03-15T00:09:15.875Z,6.20
2023-03-15T00:11:43.092Z,6.20
2023-03-15T00:14:11.035Z,6.20
2023-03-15T00:16:38.212Z,6.20
2023-03-15T00:19:05.556Z,6.20
2023-03-15T00:21:32.816Z,6.20
2023-03-15T00:24:00.053Z,6.20
2023-03-15T00:26:27.704Z,6.20
2023-03-15T00:28:55.145Z,6.20
2023-03-15T00:31:24.867Z,6.20
2023-03-15T00:33:54.148Z,6.20
2023-03-15T00:36:26.008Z,6.20
2023-03-15T00:38:55.504Z,6.20
2023-03-15T00:41:23.909Z,6.20
2023-03-15T00:43:51.375Z,6.20
2023-03-15T00:46:19.871Z,6.20
2023-03-15T00:48:51.494Z,6.20
2023-03-15T00:51:21.752Z,6.20
2023-03-15T00:53:50.638Z,6.20
2023-03-15T00:56:23.914Z,6.30
2023-03-15T00:58:54.890Z,6.40
2023-03-15T01:01:30.117Z,6.30
2023-03-15T01:03:57.788Z,6.30
2023-03-15T01:06:27.568Z,6.30
2023-03-15T01:08:56.980Z,6.30
2023-03-15T01:11:26.420Z,6.20
2023-03-15T01:13:55.223Z,6.20
2023-03-15T01:16:22.752Z,6.20
2023-03-15T01:18:51.825Z,6.20
2023-03-15T01:21:20.302Z,6.20
2023-03-15T01:23:47.611Z,6.10
2023-03-15T01:26:16.683Z,6.10
2023-03-15T01:28:44.158Z,6.20
2023-03-15T01:31:26.506Z,6.20
2023-03-15T01:33:54.253Z,6.20
2023-03-15T01:36:21.499Z,6.10
2023-03-15T01:38:49.815Z,6.10
2023-03-15T01:41:18.083Z,6.10
2023-03-15T01:43:48.868Z,6.20
2023-03-15T01:46:35.981Z,6.10
2023-03-15T01:49:09.433Z,6.20
2023-03-15T01:51:39.755Z,6.20
2023-03-15T01:54:33.374Z,6.20
2023-03-15T01:57:09.425Z,6.10
2023-03-15T01:59:51.444Z,6.10
2023-03-15T02:02:22.984Z,6.10
2023-03-15T02:04:55.669Z,6.10
2023-03-15T02:07:25.894Z,6.10
2023-03-15T02:10:14.990Z,6.10
2023-03-15T02:12:50.450Z,6.10
2023-03-15T02:15:18.581Z,6.10
2023-03-15T02:17:48.993Z,6.10
2023-03-15T02:20:16.074Z,6.10
2023-03-15T02:23:19.349Z,6.10
2023-03-15T02:26:09.546Z,6.20
2023-03-15T02:28:37.146Z,6.20
2023-03-15T02:31:04.464Z,6.20
2023-03-15T02:33:42.081Z,6.20
2023-03-15T02:36:14.976Z,6.20
2023-03-15T02:38:42.102Z,6.20
2023-03-15T02:41:09.721Z,6.20
2023-03-15T02:43:37.341Z,6.10
2023-03-15T02:46:05.617Z,6.10
2023-03-15T02:48:35.683Z,6.10
2023-03-15T02:51:02.845Z,6.10
2023-03-15T02:53:31.737Z,6.10
2023-03-15T02:55:59.734Z,6.10
2023-03-15T02:58:27.133Z,6.10
2023-03-15T03:00:54.489Z,6.10
2023-03-15T03:03:21.872Z,6.10
2023-03-15T03:05:49.123Z,6.10
2023-03-15T03:08:16.745Z,6.10
2023-03-15T03:10:43.976Z,6.10
2023-03-15T03:13:11.248Z,6.10
2023-03-15T03:15:38.480Z,6.20
2023-03-15T03:18:05.813Z,6.20
2023-03-15T03:20:33.754Z,6.20
2023-03-15T03:23:06.085Z,6.30
2023-03-15T03:25:33.902Z,6.30
2023-03-15T03:28:04.498Z,6.30
2023-03-15T03:30:31.679Z,6.30
2023-03-15T03:32:58.964Z,6.30
2023-03-15T03:35:26.371Z,6.30
2023-03-15T03:37:53.956Z,6.30
2023-03-15T03:40:21.087Z,6.20
2023-03-15T03:42:48.391Z,6.30
2023-03-15T03:45:15.597Z,6.30
2023-03-15T03:47:42.861Z,6.30
2023-03-15T03:50:11.724Z,6.30
2023-03-15T03:52:38.853Z,6.30
2023-03-15T03:55:06.412Z,6.30
2023-03-15T03:57:33.620Z,6.30
2023-03-15T04:00:00.807Z,6.40
2023-03-15T04:02:28.006Z,6.40
2023-03-15T04:04:55.337Z,6.50
2023-03-15T04:07:22.504Z,6.50
2023-03-15T04:09:49.770Z,6.50
2023-03-15T04:12:17.084Z,6.50
2023-03-15T04:14:44.237Z,6.50
2023-03-15T04:17:11.537Z,6.50
2023-03-15T04:19:38.800Z,6.50
2023-03-15T04:22:06.877Z,6.50
2023-03-15T04:24:35.194Z,6.50
2023-03-15T04:27:03.104Z,6.50
2023-03-15T04:29:30.609Z,6.50
2023-03-15T04:32:01.830Z,6.50
2023-03-15T04:34:30.060Z,6.50
2023-03-15T04:36:57.611Z,6.50
2023-03-15T04:39:24.964Z,6.50
2023-03-15T04:41:52.087Z,6.50
2023-03-15T04:44:19.250Z,6.50
2023-03-15T04:46:46.447Z,6.50
2023-03-15T04:49:13.734Z,6.50
2023-03-15T04:51:40.994Z,6.60
2023-03-15T04:54:08.136Z,6.60
2023-03-15T04:56:36.930Z,6.60
2023-03-15T04:59:04.501Z,6.60
2023-03-15T05:01:32.586Z,6.60
2023-03-15T05:03:59.882Z,6.60
2023-03-15T05:06:26.941Z,6.60
2023-03-15T05:08:55.055Z,6.60
2023-03-15T05:11:22.275Z,6.50
2023-03-15T05:13:49.550Z,6.50
2023-03-15T05:16:16.656Z,6.50
2023-03-15T05:18:45.631Z,6.50
2023-03-15T05:21:13.600Z,6.50
2023-03-15T05:23:41.637Z,6.50
2023-03-15T05:26:08.898Z,6.50
2023-03-15T05:28:36.005Z,6.00
2023-03-15T05:31:03.115Z,5.50
2023-03-15T05:33:31.627Z,5.20
2023-03-15T05:35:59.620Z,4.90
2023-03-15T05:38:26.942Z,4.70
2023-03-15T05:40:54.816Z,4.60
2023-03-15T05:43:22.357Z,4.50
2023-03-15T05:45:49.807Z,4.50
2023-03-15T05:48:17.044Z,4.30
2023-03-15T05:50:44.315Z,4.20
2023-03-15T05:53:11.441Z,4.00
2023-03-15T05:55:38.901Z,3.80
2023-03-15T05:58:06.057Z,3.70
2023-03-15T06:00:33.590Z,3.60
2023-03-15T06:03:00.824Z,3.40
2023-03-15T06:05:28.221Z,3.30
2023-03-15T06:07:55.480Z,3.30
2023-03-15T06:10:22.805Z,3.30
2023-03-15T06:12:50.583Z,3.20
2023-03-15T06:15:18.660Z,3.20
2023-03-15T06:17:45.793Z,3.10
2023-03-15T06:20:13.400Z,3.10
2023-03-15T06:22:40.539Z,3.00
2023-03-15T06:25:08.449Z,3.00
2023-03-15T06:27:35.941Z,2.90
2023-03-15T06:30:03.406Z,2.90
2023-03-15T06:32:30.716Z,2.80
2023-03-15T06:34:57.918Z,2.80
2023-03-15T06:37:35.070Z,2.80
2023-03-15T06:40:10.099Z,2.90
2023-03-15T06:42:37.445Z,2.80
2023-03-15T06:45:08.854Z,2.80
2023-03-15T06:47:36.262Z,2.80
2023-03-15T06:50:03.993Z,2.80
2023-03-15T06:52:31.314Z,2.80
2023-03-15T06:54:58.407Z,2.80
2023-03-15T06:57:25.611Z,2.80
2023-03-15T06:59:54.279Z,2.80
2023-03-15T07:02:22.368Z,2.80
2023-03-15T07:04:49.809Z,2.80
2023-03-15T07:07:17.509Z,2.80
2023-03-15T07:09:44.681Z,2.80
2023-03-15T07:12:12.103Z,2.80
2023-03-15T07:14:39.287Z,2.80
2023-03-15T07:17:06.511Z,2.80
2023-03-15T07:19:34.612Z,2.80
2023-03-15T07:22:02.966Z,2.80
2023-03-15T07:24:31.053Z,2.90
2023-03-15T07:26:58.247Z,2.90
2023-03-15T07:29:25.546Z,2.90
2023-03-15T07:31:54.576Z,2.90
2023-03-15T07:34:21.969Z,3.00
2023-03-15T07:36:49.156Z,3.00
2023-03-15T07:39:16.909Z,3.00
2023-03-15T07:41:44.382Z,3.00
2023-03-15T07:44:11.415Z,3.00
2023-03-15T07:46:39.092Z,3.00
2023-03-15T07:49:06.295Z,3.00
2023-03-15T07:51:33.464Z,3.00
2023-03-15T07:54:00.760Z,3.00
2023-03-15T07:56:27.924Z,3.10
2023-03-15T07:58:55.463Z,3.10
2023-03-15T08:01:22.654Z,3.10
2023-03-15T08:03:49.636Z,3.20
2023-03-15T08:06:16.926Z,3.20
2023-03-15T08:08:44.014Z,3.20
2023-03-15T08:11:11.061Z,3.30
2023-03-15T08:13:38.210Z,3.30
2023-03-15T08:16:05.613Z,3.40
2023-03-15T08:18:32.741Z,3.50
2023-03-15T08:21:00.029Z,3.60
2023-03-15T08:23:27.182Z,3.60
2023-03-15T08:25:54.245Z,3.60
2023-03-15T08:28:21.636Z,3.70
2023-03-15T08:30:48.692Z,3.70
2023-03-15T08:33:15.709Z,3.70
2023-03-15T08:35:42.937Z,3.70
2023-03-15T08:38:10.260Z,3.70
2023-03-15T08:40:39.852Z,3.70
2023-03-15T08:43:07.113Z,3.80
2023-03-15T08:45:51.140Z,3.80
2023-03-15T08:48:21.368Z,3.90
2023-03-15T08:50:48.361Z,3.80
2023-03-15T08:53:15.776Z,3.80
2023-03-15T08:55:43.664Z,3.80
2023-03-15T08:58:13.230Z,3.80
2023-03-15T09:00:40.588Z,3.90
2023-03-15T09:03:07.718Z,4.10
2023-03-15T09:05:34.807Z,4.30
2023-03-15T09:08:02.099Z,4.40
2023-03-15T09:10:29.287Z,4.40
2023-03-15T09:12:56.473Z,4.40
2023-03-15T09:15:23.674Z,4.30
2023-03-15T09:17:54.358Z,4.20
2023-03-15T09:20:23.163Z,4.20
2023-03-15T09:22:52.942Z,4.10
2023-03-15T09:25:21.178Z,4.20
2023-03-15T09:27:48.645Z,4.10
2023-03-15T09:30:16.223Z,4.10
2023-03-15T09:32:44.545Z,4.00
2023-03-15T09:35:16.158Z,4.00
2023-03-15T09:37:43.380Z,3.90
2023-03-15T09:40:22.708Z,3.90
2023-03-15T09:43:07.202Z,4.00
2023-03-15T09:46:01.498Z,4.00
2023-03-15T09:48:35.797Z,4.20
2023-03-15T09:51:05.400Z,4.20
2023-03-15T09:53:45.096Z,4.20
2023-03-15T09:56:28.147Z,4.20
2023-03-15T09:58:59.835Z,4.20
2023-03-15T10:01:41.504Z,4.20
2023-03-15T10:04:40.730Z,4.20
2023-03-15T10:07:14.881Z,4.30
2023-03-15T10:09:42.375Z,4.30
2023-03-15T10:12:31.300Z,4.30
2023-03-15T10:15:18.668Z,4.30
2023-03-15T10:17:57.958Z,4.30
2023-03-15T10:20:36.168Z,4.40
2023-03-15T10:23:32.778Z,4.50
2023-03-15T10:26:01.017Z,4.50
2023-03-15T10:28:37.726Z,4.50
2023-03-15T10:31:26.020Z,4.50
2023-03-15T10:33:59.956Z,4.50
2023-03-15T10:36:27.373Z,4.50
2023-03-15T10:38:54.503Z,4.50
2023-03-15T10:41:30.890Z,4.50
2023-03-15T10:44:04.506Z,4.50
2023-03-15T10:46:31.826Z,4.50
2023-03-15T10:49:01.355Z,4.50
2023-03-15T10:51:29.730Z,4.50
2023-03-15T10:54:07.489Z,4.50
2023-03-15T10:56:56.785Z,4.60
2023-03-15T10:59:26.883Z,4.60
2023-03-15T11:02:08.150Z,4.60
2023-03-15T11:04:41.431Z,4.60
2023-03-15T11:07:08.772Z,4.50
2023-03-15T11:09:40.940Z,4.50
2023-03-15T11:12:10.922Z,4.40
2023-03-15T11:14:42.373Z,4.40
2023-03-15T11:17:18.204Z,4.30
2023-03-15T11:20:20.884Z,4.30
2023-03-15T11:22:48.013Z,4.30
2023-03-15T11:25:17.162Z,4.40
2023-03-15T11:27:47.089Z,4.50
2023-03-15T11:30:18.679Z,4.60
2023-03-15T11:32:47.256Z,4.70
2023-03-15T11:35:26.454Z,4.80
2023-03-15T11:38:06.161Z,4.80
2023-03-15T11:40:48.344Z,4.80
2023-03-15T11:43:47.600Z,4.70
2023-03-15T11:46:40.612Z,4.60
2023-03-15T11:49:46.748Z,4.50
2023-03-15T11:52:16.787Z,4.40
2023-03-15T11:54:46.245Z,4.40
2023-03-15T11:57:36.138Z,4.30
2023-03-15T12:00:27.031Z,4.30
2023-03-15T12:02:58.357Z,4.40
2023-03-15T12:05:51.050Z,4.50
2023-03-15T12:08:21.494Z,4.60
2023-03-15T12:10:50.845Z,4.70
2023-03-15T12:13:23.178Z,4.60
2023-03-15T12:15:51.155Z,4.60
2023-03-15T12:18:38.967Z,4.60
2023-03-15T12:21:33.982Z,4.60
2023-03-15T12:24:05.533Z,4.50
2023-03-15T12:27:06.515Z,4.60
2023-03-15T12:29:35.601Z,4.60
2023-03-15T12:32:02.618Z,4.60
2023-03-15T12:34:37.435Z,4.70
2023-03-15T12:37:13.669Z,4.80
2023-03-15T12:39:46.904Z,4.80
2023-03-15T12:42:35.020Z,4.90
2023-03-15T12:45:27.703Z,5.00
2023-03-15T12:47:54.759Z,5.20
2023-03-15T12:50:52.746Z,5.10
2023-03-15T12:53:39.111Z,5.00
2023-03-15T12:56:32.785Z,5.00
2023-03-15T12:59:27.209Z,5.00
2023-03-15T13:01:55.382Z,5.10
2023-03-15T13:04:22.820Z,5.10
2023-03-15T13:07:04.633Z,5.10
2023-03-15T13:09:37.494Z,5.10
2023-03-15T13:12:41.924Z,5.10
2023-03-15T13:15:17.216Z,5.30
2023-03-15T13:17:52.117Z,5.30
2023-03-15T13:20:27.856Z,5.30
2023-03-15T13:23:17.887Z,5.30
2023-03-15T13:26:11.784Z,5.30
2023-03-15T13:28:49.614Z,5.30
2023-03-15T13:31:19.524Z,5.40
2023-03-15T13:33:51.554Z,5.40
2023-03-15T13:36:23.831Z,5.30
2023-03-15T13:38:53.490Z,5.30
2023-03-15T13:41:30.002Z,5.30
2023-03-15T13:44:00.711Z,5.20
2023-03-15T13:46:31.439Z,5.30
2023-03-15T13:49:01.308Z,5.30
2023-03-15T13:51:36.786Z,5.30
2023-03-15T13:54:29.577Z,5.30
2023-03-15T13:57:24.295Z,5.30
2023-03-15T13:59:53.003Z,5.30
2023-03-15T14:02:33.293Z,5.20
2023-03-15T14:05:05.521Z,5.10
2023-03-15T14:08:06.278Z,5.00
2023-03-15T14:10:35.044Z,5.00
2023-03-15T14:13:24.831Z,5.00
2023-03-15T14:15:58.265Z,4.90
2023-03-15T14:18:32.113Z,4.90
2023-03-15T14:21:02.122Z,4.90
2023-03-15T14:23:30.834Z,4.90
2023-03-15T14:26:19.709Z,4.90
2023-03-15T14:29:07.723Z,4.80
2023-03-15T14:31:40.867Z,4.80
2023-03-15T14:34:39.164Z,4.70
2023-03-15T14:37:27.576Z,4.70
2023-03-15T14:40:14.998Z,4.70
2023-03-15T14:42:43.444Z,4.70
2023-03-15T14:45:11.080Z,4.70
2023-03-15T14:47:55.109Z,4.70
2023-03-15T14:50:27.429Z,4.70
2023-03-15T14:52:56.183Z,4.60
2023-03-15T14:55:27.888Z,4.60
2023-03-15T14:57:54.966Z,4.60
2023-03-15T15:00:22.514Z,4.50
2023-03-15T15:02:54.085Z,4.50
2023-03-15T15:05:33.465Z,4.50
2023-03-15T15:08:15.542Z,4.40
2023-03-15T15:10:45.646Z,4.40
2023-03-15T15:13:30.656Z,4.40
2023-03-15T15:15:58.070Z,4.30
2023-03-15T15:18:27.208Z,4.30
2023-03-15T15:20:56.638Z,4.20
2023-03-15T15:23:27.346Z,4.20
2023-03-15T15:26:04.223Z,4.10
2023-03-15T15:28:36.641Z,4.10
2023-03-15T15:31:08.452Z,4.10
2023-03-15T15:33:35.788Z,4.00
2023-03-15T15:36:03.290Z,4.00
2023-03-15T15:38:38.526Z,4.00
2023-03-15T15:41:38.437Z,4.00
2023-03-15T15:44:17.531Z,3.90
2023-03-15T15:46:44.740Z,3.90
2023-03-15T15:49:12.081Z,3.90
2023-03-15T15:51:46.247Z,3.80
2023-03-15T15:54:19.170Z,3.80
2023-03-15T15:56:53.405Z,3.70
2023-03-15T15:59:21.175Z,3.70
2023-03-15T16:02:00.044Z,3.70
2023-03-15T16:04:28.569Z,3.60
2023-03-15T16:07:02.104Z,3.60
2023-03-15T16:09:31.320Z,3.50
2023-03-15T16:11:58.686Z,3.50
2023-03-15T16:14:27.398Z,3.40
2023-03-15T16:16:54.607Z,3.40
2023-03-15T16:19:22.666Z,3.40
2023-03-15T16:21:52.324Z,3.30
2023-03-15T16:24:28.201Z,3.30
2023-03-15T16:27:03.775Z,3.30
2023-03-15T16:29:38.081Z,3.20
2023-03-15T16:32:17.597Z,3.20
2023-03-15T16:34:50.368Z,3.20
2023-03-15T16:37:24.238Z,3.10
2023-03-15T16:39:55.820Z,3.00
2023-03-15T16:42:24.637Z,3.00
2023-03-15T16:44:54.225Z,2.90
2023-03-15T16:47:21.411Z,2.90
2023-03-15T16:49:48.725Z,2.80
2023-03-15T16:52:17.278Z,2.80
2023-03-15T16:54:47.685Z,2.70
2023-03-15T16:57:22.263Z,2.70
2023-03-15T16:59:50.194Z,2.60
2023-03-15T17:02:29.368Z,2.60
2023-03-15T17:04:56.648Z,2.60
2023-03-15T17:07:34.091Z,2.60
2023-03-15T17:10:07.602Z,2.50
2023-03-15T17:12:36.370Z,2.50
2023-03-15T17:15:04.603Z,2.40
2023-03-15T17:17:33.164Z,2.30
2023-03-15T17:20:01.090Z,2.30
2023-03-15T17:22:28.952Z,2.30
2023-03-15T17:24:56.117Z,2.20
2023-03-15T17:27:34.649Z,2.20
2023-03-15T17:30:02.209Z,2.10
2023-03-15T17:32:29.390Z,2.10
2023-03-15T17:34:59.206Z,2.00
2023-03-15T17:37:36.430Z,2.00
2023-03-15T17:40:12.570Z,2.00
2023-03-15T17:42:40.200Z,2.00
2023-03-15T17:45:21.854Z,2.10
2023-03-15T17:47:52.184Z,2.10
2023-03-15T17:50:20.097Z,2.10
2023-03-15T17:52:51.609Z,2.10
2023-03-15T17:55:21.536Z,2.20
2023-03-15T17:57:54.642Z,2.20
2023-03-15T18:00:23.440Z,2.30
2023-03-15T18:02:55.629Z,2.30
2023-03-15T18:05:28.443Z,2.30
2023-03-15T18:07:59.320Z,2.30
2023-03-15T18:10:33.627Z,2.30
2023-03-15T18:13:01.079Z,2.30
2023-03-15T18:15:28.743Z,2.40
2023-03-15T18:17:55.896Z,2.30
2023-03-15T18:20:24.259Z,2.30
2023-03-15T18:22:52.183Z,2.40
2023-03-15T18:25:28.450Z,2.40
2023-03-15T18:27:55.509Z,2.40
2023-03-15T18:30:25.226Z,2.40
2023-03-15T18:32:53.801Z,2.40
2023-03-15T18:35:24.246Z,2.40
2023-03-15T18:37:51.613Z,2.40
2023-03-15T18:40:20.318Z,2.30
2023-03-15T18:42:50.733Z,2.20
2023-03-15T18:45:24.481Z,2.20
2023-03-15T18:47:54.220Z,2.10
2023-03-15T18:50:23.500Z,2.10
2023-03-15T18:52:50.796Z,2.10
2023-03-15T18:55:19.904Z,2.10
2023-03-15T18:57:46.958Z,2.10
2023-03-15T19:00:23.829Z,2.10
2023-03-15T19:02:51.139Z,2.00
2023-03-15T19:05:18.441Z,2.00
2023-03-15T19:07:47.692Z,2.00
2023-03-15T19:10:17.148Z,2.00
2023-03-15T19:12:47.430Z,2.00
2023-03-15T19:15:17.752Z,2.00
2023-03-15T19:17:47.130Z,2.00
2023-03-15T19:20:17.550Z,1.90
2023-03-15T19:22:45.514Z,1.90
2023-03-15T19:25:14.217Z,1.90
2023-03-15T19:27:42.287Z,1.90
2023-03-15T19:30:12.588Z,1.90
2023-03-15T19:32:42.909Z,1.90
2023-03-15T19:35:10.840Z,1.80
2023-03-15T19:37:38.606Z,1.80
2023-03-15T19:40:09.611Z,1.90
2023-03-15T19:42:36.865Z,1.90
2023-03-15T19:45:05.581Z,1.90
2023-03-15T19:47:32.846Z,1.90
2023-03-15T19:50:00.000Z,1.90
2023-03-15T19:52:29.395Z,1.90
2023-03-15T19:54:56.924Z,1.90
2023-03-15T19:57:24.067Z,1.90
2023-03-15T19:59:51.183Z,1.80
2023-03-15T20:02:18.381Z,1.90
2023-03-15T20:04:45.822Z,1.80
2023-03-15T20:07:13.017Z,1.80
2023-03-15T20:09:41.678Z,1.80
2023-03-15T20:12:11.183Z,1.80
2023-03-15T20:14:38.920Z,1.70
2023-03-15T20:17:06.214Z,1.80
2023-03-15T20:19:33.695Z,1.70
2023-03-15T20:22:00.852Z,1.70
2023-03-15T20:24:28.264Z,1.70
2023-03-15T20:26:55.863Z,1.80
2023-03-15T20:29:22.964Z,1.70
2023-03-15T20:31:51.164Z,1.70
2023-03-15T20:34:18.640Z,1.80
2023-03-15T20:36:46.295Z,1.70
2023-03-15T20:39:13.690Z,1.70
2023-03-15T20:41:41.034Z,1.70
2023-03-15T20:44:08.333Z,1.70
2023-03-15T20:46:35.800Z,1.70
2023-03-15T20:49:03.082Z,1.70
2023-03-15T20:51:30.290Z,1.70
2023-03-15T20:53:58.212Z,1.70
2023-03-15T20:56:25.519Z,1.60
2023-03-15T20:58:52.657Z,1.60
2023-03-15T21:01:20.006Z,1.60
2023-03-15T21:03:47.631Z,1.50
2023-03-15T21:06:15.216Z,1.50
2023-03-15T21:08:42.622Z,1.50
2023-03-15T21:11:10.076Z,1.40
2023-03-15T21:13:37.575Z,1.40
2023-03-15T21:16:05.066Z,1.40
2023-03-15T21:18:35.658Z,1.40
2023-03-15T21:21:04.118Z,1.30
2023-03-15T21:23:31.813Z,1.30
2023-03-15T21:26:04.545Z,1.30
2023-03-15T21:28:33.220Z,1.30
2023-03-15T21:31:00.862Z,1.30
2023-03-15T21:33:29.696Z,1.20
2023-03-15T21:35:59.394Z,1.20
2023-03-15T21:38:28.632Z,1.10
2023-03-15T21:40:59.923Z,1.10
2023-03-15T21:43:32.517Z,1.10
2023-03-15T21:46:12.132Z,1.10
2023-03-15T21:48:39.678Z,1.00
2023-03-15T21:51:07.686Z,1.00
2023-03-15T21:53:35.712Z,0.90
2023-03-15T21:56:04.125Z,0.90
2023-03-15T21:58:31.807Z,0.80
2023-03-15T22:01:05.740Z,0.80
2023-03-15T22:03:34.443Z,0.70
2023-03-15T22:06:02.231Z,0.70
2023-03-15T22:08:29.566Z,0.60
2023-03-15T22:10:58.955Z,0.60
2023-03-15T22:13:26.996Z,0.50
2023-03-15T22:15:54.228Z,0.50
2023-03-15T22:18:21.795Z,0.40
2023-03-15T22:20:51.145Z,0.40
2023-03-15T22:23:18.853Z,0.40
2023-03-15T22:25:46.263Z,0.30
2023-03-15T22:28:13.961Z,0.30
2023-03-15T22:30:41.650Z,0.20
2023-03-15T22:33:09.068Z,0.10
2023-03-15T22:35:36.322Z,0.10
2023-03-15T22:38:10.362Z,0.00
2023-03-15T22:40:40.164Z,0.00
2023-03-15T22:43:08.448Z,0.00
2023-03-15T22:45:36.562Z,0.00
2023-03-15T22:48:03.959Z,0.00
2023-03-15T22:50:31.557Z,0.00
2023-03-15T22:52:58.820Z,0.00
2023-03-15T22:55:26.151Z,-0.10
2023-03-15T22:57:54.210Z,-0.10
2023-03-15T23:00:22.591Z,0.00
2023-03-15T23:02:49.996Z,-0.10
2023-03-15T23:05:19.757Z,0.00
2023-03-15T23:07:47.391Z,-0.10
2023-03-15T23:10:14.887Z,-0.10
2023-03-15T23:12:42.053Z,0.00
2023-03-15T23:15:10.194Z,-0.10
2023-03-15T23:17:37.709Z,-0.10
2023-03-15T23:20:07.415Z,-0.20
2023-03-15T23:22:34.772Z,-0.20
2023-03-15T23:25:02.011Z,-0.20
2023-03-15T23:27:29.475Z,-0.20
2023-03-15T23:29:56.574Z,-0.30
2023-03-15T23:32:25.301Z,-0.30
2023-03-15T23:34:53.908Z,-0.30
2023-03-15T23:37:21.442Z,-0.30
2023-03-15T23:39:48.716Z,-0.30
2023-03-15T23:42:16.161Z,-0.30
2023-03-15T23:44:43.557Z,-0.20
2023-03-15T23:47:12.445Z,-0.20
2023-03-15T23:49:39.607Z,-0.20
2023-03-15T23:52:07.129Z,-0.20
2023-03-15T23:54:40.349Z,-0.20
2023-03-15T23:57:12.725Z,-0.20
2023-03-15T23:59:41.691Z,-0.10
